Time;durP1;ratioP1;P1;durP2;ratioP2;P2;SDS_P1;SDS_P2;PMS_P1;PMS_P2;Temp;Humidity;BMP_temperature;BMP_pressure;BME280_temperature;BME280_humidity;BME280_pressure;Samples;Min_cycle;Max_cycle;Signal;HPM_P1;HPM_P2
2023/10/24 00:01:30;;;;;;;9.97;5.67;;;;;;;;;;5058421;28;20430;-87
2023/10/24 00:03:55;;;;;;;13.25;5.13;;;;;;;;;;5058309;28;20394;-86
2023/10/24 00:06:21;;;;;;;12.27;5.73;;;;;;;;;;5075381;28;20016;-86
2023/10/24 00:08:46;;;;;;;12.83;5.90;;;;;;;;;;5057547;28;20260;-86
2023/10/24 00:11:11;;;;;;;9.97;5.03;;;;;;;;;;5076214;28;20261;-86
2023/10/24 00:13:36;;;;;;;7.40;4.63;;;;;;;;;;5076546;28;20013;-86
2023/10/24 00:16:01;;;;;;;10.87;4.70;;;;;;;;;;5058555;28;20024;-86
2023/10/24 00:18:27;;;;;;;11.57;5.07;;;;;;;;;;5076520;28;20302;-87
2023/10/24 00:20:52;;;;;;;11.43;5.22;;;;;;;;;;5076064;28;20265;-86
2023/10/24 00:23:18;;;;;;;14.65;5.10;;;;;;;;;;5058032;28;20484;-86
2023/10/24 00:25:43;;;;;;;10.93;5.13;;;;;;;;;;5057664;28;20115;-86
2023/10/24 00:28:09;;;;;;;13.15;4.57;;;;;;;;;;5057821;28;20025;-86
2023/10/24 00:30:34;;;;;;;8.45;5.20;;;;;;;;;;5057987;28;20024;-86
2023/10/24 00:32:59;;;;;;;11.02;4.85;;;;;;;;;;5057754;28;20028;-86
2023/10/24 00:35:24;;;;;;;9.75;5.28;;;;;;;;;;5057627;28;20055;-86
2023/10/24 00:37:50;;;;;;;12.47;4.93;;;;;;;;;;5057461;28;20017;-86
2023/10/24 00:40:15;;;;;;;10.23;5.00;;;;;;;;;;5057351;28;20281;-86
2023/10/24 00:42:40;;;;;;;7.90;4.43;;;;;;;;;;5056582;28;20465;-86
2023/10/24 00:45:06;;;;;;;11.33;4.67;;;;;;;;;;5057273;28;20024;-86
2023/10/24 00:47:32;;;;;;;14.82;4.80;;;;;;;;;;5075680;28;20253;-86
2023/10/24 00:49:57;;;;;;;9.68;4.78;;;;;;;;;;5056770;28;20040;-86
2023/10/24 00:52:22;;;;;;;12.77;5.07;;;;;;;;;;5075032;28;20023;-86
2023/10/24 00:54:48;;;;;;;9.38;4.68;;;;;;;;;;5057444;28;20024;-86
2023/10/24 00:57:13;;;;;;;9.77;3.72;;;;;;;;;;5057401;28;20093;-86
2023/10/24 00:59:39;;;;;;;12.85;4.68;;;;;;;;;;5057611;28;20017;-87
2023/10/24 01:02:05;;;;;;;10.52;4.38;;;;;;;;;;5057336;28;20030;-86
2023/10/24 01:04:30;;;;;;;8.40;3.72;;;;;;;;;;5056915;28;20028;-86
2023/10/24 01:06:55;;;;;;;7.35;4.07;;;;;;;;;;5056958;28;20070;-86
2023/10/24 01:09:20;;;;;;;10.03;3.47;;;;;;;;;;5057196;28;20021;-86
2023/10/24 01:11:48;;;;;;;9.75;3.95;;;;;;;;;;5075362;28;20024;-86
2023/10/24 01:14:14;;;;;;;9.57;3.42;;;;;;;;;;5056956;28;20024;-86
2023/10/24 01:16:43;;;;;;;11.55;4.10;;;;;;;;;;5056461;28;20031;-86
2023/10/24 01:19:09;;;;;;;7.55;3.58;;;;;;;;;;5056079;28;20476;-86
2023/10/24 01:21:34;;;;;;;8.98;3.70;;;;;;;;;;5056199;28;20073;-86
2023/10/24 01:23:59;;;;;;;7.80;3.80;;;;;;;;;;5074618;28;20036;-87
2023/10/24 01:26:25;;;;;;;10.88;3.70;;;;;;;;;;5074676;28;20098;-86
2023/10/24 01:28:50;;;;;;;12.30;3.85;;;;;;;;;;5056769;28;20012;-86
2023/10/24 01:31:16;;;;;;;9.37;3.67;;;;;;;;;;5056594;28;20021;-86
2023/10/24 01:33:41;;;;;;;9.07;3.50;;;;;;;;;;5056653;28;20265;-86
2023/10/24 01:36:06;;;;;;;9.47;3.57;;;;;;;;;;5056292;28;20020;-87
2023/10/24 01:38:31;;;;;;;7.87;3.40;;;;;;;;;;5056982;28;20044;-86
2023/10/24 01:40:56;;;;;;;8.47;3.87;;;;;;;;;;5074535;28;20257;-86
2023/10/24 01:43:22;;;;;;;12.30;3.97;;;;;;;;;;5056849;28;20492;-86
2023/10/24 01:45:47;;;;;;;11.77;4.03;;;;;;;;;;5056116;28;20024;-86
2023/10/24 01:48:12;;;;;;;6.77;3.60;;;;;;;;;;5056606;28;20752;-86
2023/10/24 01:50:37;;;;;;;7.05;4.45;;;;;;;;;;5056686;28;20028;-86
2023/10/24 01:53:03;;;;;;;8.15;3.97;;;;;;;;;;5055788;28;20025;-86
2023/10/24 01:55:28;;;;;;;9.48;4.20;;;;;;;;;;5055578;28;20029;-86
2023/10/24 01:57:53;;;;;;;10.57;3.58;;;;;;;;;;5074435;28;20024;-86
2023/10/24 02:00:19;;;;;;;9.27;3.77;;;;;;;;;;5056336;28;20030;-86
2023/10/24 02:02:44;;;;;;;7.45;4.00;;;;;;;;;;5056320;28;20439;-86
2023/10/24 02:05:10;;;;;;;8.70;4.07;;;;;;;;;;5056016;28;20050;-86
2023/10/24 02:07:35;;;;;;;10.90;4.47;;;;;;;;;;5074233;28;20066;-86
2023/10/24 02:10:00;;;;;;;10.73;4.22;;;;;;;;;;5056177;28;20434;-87
2023/10/24 02:12:25;;;;;;;9.82;4.40;;;;;;;;;;5056379;28;20024;-86
2023/10/24 02:14:51;;;;;;;6.00;3.20;;;;;;;;;;5056184;28;20033;-87
2023/10/24 02:17:16;;;;;;;13.07;3.80;;;;;;;;;;5074164;28;20264;-86
2023/10/24 02:19:42;;;;;;;10.03;4.10;;;;;;;;;;5056168;28;20511;-86
2023/10/24 02:22:07;;;;;;;8.03;3.70;;;;;;;;;;5056034;28;20075;-86
2023/10/24 02:24:32;;;;;;;12.13;4.50;;;;;;;;;;5056084;28;20100;-86
2023/10/24 02:26:57;;;;;;;8.73;3.63;;;;;;;;;;5074172;28;20057;-86
2023/10/24 02:29:22;;;;;;;11.43;4.63;;;;;;;;;;5055248;28;20017;-86
2023/10/24 02:31:48;;;;;;;10.07;4.03;;;;;;;;;;5073094;28;20407;-86
2023/10/24 02:34:13;;;;;;;7.93;4.57;;;;;;;;;;5055982;28;20350;-86
2023/10/24 02:36:38;;;;;;;13.93;4.57;;;;;;;;;;5056373;28;20385;-86
2023/10/24 02:39:03;;;;;;;9.88;4.20;;;;;;;;;;5073802;28;20310;-86
2023/10/24 02:41:29;;;;;;;9.05;4.20;;;;;;;;;;5055898;28;20128;-86
2023/10/24 02:43:54;;;;;;;6.82;3.97;;;;;;;;;;5055614;28;20407;-87
2023/10/24 02:46:19;;;;;;;9.87;4.57;;;;;;;;;;5074119;28;20017;-86
2023/10/24 02:48:44;;;;;;;8.30;4.43;;;;;;;;;;5055896;28;20344;-87
2023/10/24 02:51:10;;;;;;;9.20;4.40;;;;;;;;;;5055640;28;20276;-86
2023/10/24 02:53:35;;;;;;;7.90;3.57;;;;;;;;;;5055775;28;20359;-86
2023/10/24 02:56:02;;;;;;;4.93;3.70;;;;;;;;;;5073827;28;20269;-87
2023/10/24 02:58:27;;;;;;;9.50;4.32;;;;;;;;;;5055975;28;20637;-86
2023/10/24 03:00:52;;;;;;;5.87;3.03;;;;;;;;;;5055692;28;20016;-87
2023/10/24 03:03:17;;;;;;;8.53;3.77;;;;;;;;;;5055725;28;20269;-86
2023/10/24 03:05:43;;;;;;;7.17;3.03;;;;;;;;;;5054344;28;20028;-86
2023/10/24 03:08:08;;;;;;;8.77;3.77;;;;;;;;;;5055482;28;20266;-86
2023/10/24 03:10:40;;;;;;;11.67;3.80;;;;;;;;;;5073717;28;20020;-86
2023/10/24 03:13:05;;;;;;;13.43;3.75;;;;;;;;;;5057845;28;20296;-86
2023/10/24 03:15:31;;;;;;;5.70;3.03;;;;;;;;;;5059427;28;20028;-86
2023/10/24 03:17:57;;;;;;;10.88;3.92;;;;;;;;;;5059225;28;20479;-87
2023/10/24 03:20:22;;;;;;;6.47;3.20;;;;;;;;;;5059412;28;20028;-86
2023/10/24 03:22:47;;;;;;;8.50;3.88;;;;;;;;;;5059054;28;20334;-86
2023/10/24 03:25:12;;;;;;;6.97;3.30;;;;;;;;;;5076783;28;20029;-86
2023/10/24 03:27:38;;;;;;;6.57;3.13;;;;;;;;;;5059317;28;20261;-86
2023/10/24 03:30:03;;;;;;;10.97;3.30;;;;;;;;;;5059133;28;20769;-87
2023/10/24 03:32:29;;;;;;;7.65;3.95;;;;;;;;;;5059116;28;20112;-86
2023/10/24 03:34:55;;;;;;;8.55;3.70;;;;;;;;;;5076729;28;20480;-86
2023/10/24 03:37:20;;;;;;;6.78;3.72;;;;;;;;;;5058701;28;20024;-87
2023/10/24 03:39:46;;;;;;;8.10;3.60;;;;;;;;;;5059354;28;20025;-87
2023/10/24 03:42:13;;;;;;;10.32;3.90;;;;;;;;;;5057965;28;20340;-87
2023/10/24 03:44:39;;;;;;;7.80;3.42;;;;;;;;;;5057868;28;20050;-86
2023/10/24 03:47:04;;;;;;;7.85;3.60;;;;;;;;;;5058795;28;20475;-88
2023/10/24 03:49:29;;;;;;;8.57;3.05;;;;;;;;;;5058834;28;20446;-88
2023/10/24 03:51:54;;;;;;;7.73;3.33;;;;;;;;;;5058935;28;20032;-88
2023/10/24 03:54:20;;;;;;;11.23;3.53;;;;;;;;;;5058593;28;20353;-88
2023/10/24 03:56:45;;;;;;;7.60;3.43;;;;;;;;;;5058571;28;20108;-87
2023/10/24 03:59:10;;;;;;;8.40;3.47;;;;;;;;;;5058445;28;20025;-89
2023/10/24 04:01:36;;;;;;;5.82;3.38;;;;;;;;;;5059348;28;20289;-87
2023/10/24 04:04:01;;;;;;;4.90;2.70;;;;;;;;;;5058698;28;20536;-89
2023/10/24 04:06:27;;;;;;;6.45;3.45;;;;;;;;;;5058250;28;20020;-88
2023/10/24 04:08:52;;;;;;;8.95;3.85;;;;;;;;;;5042559;28;20048;-88
2023/10/24 04:11:17;;;;;;;6.40;2.67;;;;;;;;;;5058937;28;20017;-88
2023/10/24 04:13:46;;;;;;;4.15;2.67;;;;;;;;;;5058704;28;20329;-89
2023/10/24 04:16:12;;;;;;;7.82;2.88;;;;;;;;;;5058723;28;20495;-89
2023/10/24 04:18:37;;;;;;;5.22;3.13;;;;;;;;;;5057978;28;20020;-89
2023/10/24 04:21:02;;;;;;;6.88;2.67;;;;;;;;;;5076017;28;20032;-89
2023/10/24 04:23:29;;;;;;;6.07;2.70;;;;;;;;;;5057416;28;20044;-89
2023/10/24 04:25:54;;;;;;;4.05;2.72;;;;;;;;;;5058207;28;20021;-89
2023/10/24 04:28:19;;;;;;;5.90;2.88;;;;;;;;;;5076495;28;20034;-89
2023/10/24 04:30:45;;;;;;;6.03;2.70;;;;;;;;;;5058584;28;20035;-88
2023/10/24 04:33:10;;;;;;;10.43;2.67;;;;;;;;;;5058575;28;20017;-89
2023/10/24 04:35:43;;;;;;;6.47;2.70;;;;;;;;;;5058316;28;20082;-88
2023/10/24 04:38:09;;;;;;;3.30;2.25;;;;;;;;;;5058331;28;20017;-88
2023/10/24 04:40:38;;;;;;;3.08;2.40;;;;;;;;;;5076357;28;20394;-88
2023/10/24 04:43:03;;;;;;;3.60;2.03;;;;;;;;;;5058445;28;20115;-89
2023/10/24 04:45:29;;;;;;;5.28;2.35;;;;;;;;;;5057957;28;20108;-89
2023/10/24 04:47:55;;;;;;;4.35;2.38;;;;;;;;;;5058173;28;20024;-88
2023/10/24 04:50:20;;;;;;;6.43;2.78;;;;;;;;;;5058101;28;20086;-89
2023/10/24 04:52:45;;;;;;;9.10;3.30;;;;;;;;;;5058091;28;20476;-89
2023/10/24 04:55:10;;;;;;;6.23;2.53;;;;;;;;;;5058062;28;20295;-88
2023/10/24 04:57:36;;;;;;;5.70;2.43;;;;;;;;;;5074774;28;20253;-88
2023/10/24 05:00:01;;;;;;;6.43;2.80;;;;;;;;;;5057623;28;20031;-89
2023/10/24 05:02:27;;;;;;;7.40;3.17;;;;;;;;;;5076014;28;20069;-88
2023/10/24 05:04:52;;;;;;;11.20;4.03;;;;;;;;;;5057982;28;20326;-89
2023/10/24 05:07:17;;;;;;;7.25;3.80;;;;;;;;;;5057783;28;20016;-88
2023/10/24 05:09:42;;;;;;;12.87;4.87;;;;;;;;;;5057982;28;20078;-89
2023/10/24 05:12:08;;;;;;;11.47;4.40;;;;;;;;;;5057740;28;20257;-88
2023/10/24 05:14:33;;;;;;;9.50;3.70;;;;;;;;;;5057968;28;20250;-89
2023/10/24 05:16:58;;;;;;;5.70;3.15;;;;;;;;;;5057886;28;20036;-89
2023/10/24 05:19:23;;;;;;;7.00;3.17;;;;;;;;;;5057731;28;20029;-89
2023/10/24 05:21:49;;;;;;;5.93;3.13;;;;;;;;;;5054114;28;20094;-89
2023/10/24 05:24:14;;;;;;;9.13;3.97;;;;;;;;;;5054333;28;20435;-88
2023/10/24 05:26:39;;;;;;;6.93;3.40;;;;;;;;;;5055907;28;20242;-88
2023/10/24 05:29:04;;;;;;;5.72;2.40;;;;;;;;;;5054259;28;20520;-89
2023/10/24 05:31:30;;;;;;;5.45;2.83;;;;;;;;;;5053478;28;20036;-88
2023/10/24 05:33:55;;;;;;;7.13;2.77;;;;;;;;;;5053331;28;20043;-88
2023/10/24 05:36:20;;;;;;;6.95;2.65;;;;;;;;;;5053831;28;20250;-88
2023/10/24 05:38:45;;;;;;;5.50;3.03;;;;;;;;;;5054207;28;20104;-88
2023/10/24 05:41:11;;;;;;;5.67;2.90;;;;;;;;;;5054294;28;20316;-89
2023/10/24 05:43:38;;;;;;;4.93;2.70;;;;;;;;;;5053598;28;20246;-88
2023/10/24 05:46:05;;;;;;;6.45;3.25;;;;;;;;;;5055344;28;20499;-89
2023/10/24 05:48:30;;;;;;;4.57;3.53;;;;;;;;;;5055095;28;20088;-89
2023/10/24 05:50:56;;;;;;;4.65;2.80;;;;;;;;;;5053848;28;20059;-89
2023/10/24 05:53:21;;;;;;;5.60;2.80;;;;;;;;;;5055237;28;20021;-89
2023/10/24 05:55:46;;;;;;;5.73;3.07;;;;;;;;;;5053750;28;20776;-89
2023/10/24 05:58:11;;;;;;;9.33;3.10;;;;;;;;;;5053961;28;20757;-89
2023/10/24 06:00:36;;;;;;;6.90;3.27;;;;;;;;;;5053986;28;20021;-89
2023/10/24 06:03:02;;;;;;;9.67;3.30;;;;;;;;;;5053976;28;20022;-89
2023/10/24 06:05:27;;;;;;;9.27;3.17;;;;;;;;;;5053769;28;20274;-88
2023/10/24 06:07:52;;;;;;;8.20;3.20;;;;;;;;;;5052762;28;20388;-88
2023/10/24 06:10:17;;;;;;;6.53;3.70;;;;;;;;;;5053160;28;20864;-88
2023/10/24 06:12:43;;;;;;;8.13;4.40;;;;;;;;;;5053763;28;20813;-89
2023/10/24 06:15:08;;;;;;;7.23;4.97;;;;;;;;;;5053581;28;20269;-89
2023/10/24 06:17:34;;;;;;;6.15;4.28;;;;;;;;;;5053597;28;20246;-89
2023/10/24 06:19:59;;;;;;;10.88;5.70;;;;;;;;;;5053595;28;20477;-88
2023/10/24 06:22:25;;;;;;;11.83;6.63;;;;;;;;;;5053322;28;20396;-89
2023/10/24 06:24:50;;;;;;;10.55;7.15;;;;;;;;;;5053576;28;20702;-89
2023/10/24 06:27:16;;;;;;;10.00;6.17;;;;;;;;;;5053523;28;20023;-89
2023/10/24 06:29:41;;;;;;;14.57;7.13;;;;;;;;;;5053442;28;20027;-89
2023/10/24 06:32:06;;;;;;;16.70;10.00;;;;;;;;;;5053631;28;20021;-88
2023/10/24 06:34:33;;;;;;;18.67;11.70;;;;;;;;;;5053593;28;20035;-88
2023/10/24 06:36:59;;;;;;;19.85;12.65;;;;;;;;;;5053578;28;20258;-89
2023/10/24 06:39:24;;;;;;;13.68;10.35;;;;;;;;;;5053407;28;20511;-88
2023/10/24 06:41:49;;;;;;;18.97;9.00;;;;;;;;;;5053186;28;20025;-88
2023/10/24 06:44:15;;;;;;;12.10;7.87;;;;;;;;;;5052197;28;20285;-89
2023/10/24 06:46:40;;;;;;;13.30;8.33;;;;;;;;;;5052627;28;20028;-89
2023/10/24 06:49:05;;;;;;;13.57;8.25;;;;;;;;;;5057247;28;20258;-89
2023/10/24 06:51:31;;;;;;;10.93;6.33;;;;;;;;;;5057427;28;20547;-88
2023/10/24 06:53:56;;;;;;;13.52;6.68;;;;;;;;;;5057035;28;20308;-89
2023/10/24 06:56:22;;;;;;;10.13;7.10;;;;;;;;;;5057257;28;20025;-88
2023/10/24 06:58:47;;;;;;;11.70;7.13;;;;;;;;;;5056970;28;20308;-88
2023/10/24 07:01:12;;;;;;;8.63;5.93;;;;;;;;;;5056903;28;20250;-88
2023/10/24 07:03:37;;;;;;;10.20;4.77;;;;;;;;;;5056829;28;20063;-88
2023/10/24 07:06:04;;;;;;;7.67;5.03;;;;;;;;;;5056910;28;20021;-89
2023/10/24 07:08:30;;;;;;;11.27;4.97;;;;;;;;;;5056899;28;20242;-89
2023/10/24 07:10:55;;;;;;;16.27;4.20;;;;;;;;;;5056690;28;20526;-89
2023/10/24 07:13:20;;;;;;;9.17;4.17;;;;;;;;;;5057115;28;20306;-89
2023/10/24 07:15:45;;;;;;;8.03;4.07;;;;;;;;;;5056648;28;20029;-89
2023/10/24 07:18:10;;;;;;;5.43;3.77;;;;;;;;;;5056121;28;20099;-89
2023/10/24 07:20:36;;;;;;;11.30;4.15;;;;;;;;;;5055655;28;20020;-89
2023/10/24 07:23:02;;;;;;;8.30;3.60;;;;;;;;;;5071810;28;20063;-88
2023/10/24 07:25:27;;;;;;;10.77;4.72;;;;;;;;;;5077748;28;20476;-88
2023/10/24 07:27:52;;;;;;;8.23;4.57;;;;;;;;;;5060254;28;20055;-88
2023/10/24 07:30:17;;;;;;;8.23;4.27;;;;;;;;;;5059957;28;20249;-89
2023/10/24 07:32:43;;;;;;;6.97;4.03;;;;;;;;;;5059815;28;20253;-89
2023/10/24 07:35:08;;;;;;;8.77;4.37;;;;;;;;;;5059489;28;20329;-88
2023/10/24 07:37:35;;;;;;;10.60;4.93;;;;;;;;;;5060100;28;20341;-88
2023/10/24 07:40:01;;;;;;;5.85;4.32;;;;;;;;;;5059640;28;20027;-88
2023/10/24 07:42:26;;;;;;;5.72;3.85;;;;;;;;;;5059619;28;20017;-88
2023/10/24 07:44:53;;;;;;;8.63;4.20;;;;;;;;;;5059480;28;20147;-88
2023/10/24 07:47:18;;;;;;;6.60;3.97;;;;;;;;;;5059660;28;20249;-89
2023/10/24 07:49:43;;;;;;;7.77;4.67;;;;;;;;;;5059266;28;20024;-89
2023/10/24 07:52:09;;;;;;;8.13;3.73;;;;;;;;;;5059895;28;20250;-89
2023/10/24 07:54:34;;;;;;;6.07;3.78;;;;;;;;;;5058711;28;20021;-89
2023/10/24 07:57:00;;;;;;;11.48;4.70;;;;;;;;;;5058517;28;20077;-88
2023/10/24 07:59:25;;;;;;;6.72;4.28;;;;;;;;;;5058838;28;20032;-89
2023/10/24 08:01:50;;;;;;;8.85;4.53;;;;;;;;;;5042628;28;20081;-89
2023/10/24 08:04:15;;;;;;;5.65;3.22;;;;;;;;;;5059473;28;20024;-89
2023/10/24 08:06:41;;;;;;;6.65;4.40;;;;;;;;;;5059648;28;20027;-89
2023/10/24 08:09:06;;;;;;;5.80;4.10;;;;;;;;;;5058910;28;20045;-89
2023/10/24 08:11:31;;;;;;;9.27;4.80;;;;;;;;;;5059460;28;20020;-89
2023/10/24 08:13:56;;;;;;;6.03;4.50;;;;;;;;;;5059092;28;20021;-89
2023/10/24 08:16:22;;;;;;;7.03;5.20;;;;;;;;;;5059404;28;20283;-90
2023/10/24 08:18:47;;;;;;;7.80;5.60;;;;;;;;;;5059123;28;20310;-89
2023/10/24 08:21:16;;;;;;;7.95;5.10;;;;;;;;;;5059261;28;20249;-89
2023/10/24 08:23:41;;;;;;;7.32;4.93;;;;;;;;;;5076908;28;20492;-89
2023/10/24 08:26:06;;;;;;;7.73;4.70;;;;;;;;;;5059052;28;20056;-89
2023/10/24 08:28:32;;;;;;;7.60;4.97;;;;;;;;;;5059048;28;20108;-89
2023/10/24 08:30:57;;;;;;;8.30;4.63;;;;;;;;;;5058144;28;20441;-89
2023/10/24 08:33:22;;;;;;;7.73;4.77;;;;;;;;;;5058410;28;20021;-89
2023/10/24 08:35:47;;;;;;;5.05;3.97;;;;;;;;;;5076388;28;20245;-90
2023/10/24 08:38:13;;;;;;;5.45;3.25;;;;;;;;;;5058586;28;20021;-89
2023/10/24 08:40:39;;;;;;;6.65;3.53;;;;;;;;;;5059022;28;20077;-89
2023/10/24 08:43:04;;;;;;;5.38;2.63;;;;;;;;;;5058458;28;20115;-89
2023/10/24 08:45:30;;;;;;;4.33;1.60;;;;;;;;;;5076525;28;20081;-89
2023/10/24 08:47:56;;;;;;;5.85;1.67;;;;;;;;;;5058861;28;20245;-89
2023/10/24 08:50:21;;;;;;;2.13;1.10;;;;;;;;;;5076380;28;20021;-89
2023/10/24 08:52:47;;;;;;;2.10;1.00;;;;;;;;;;5076597;28;20021;-89
2023/10/24 08:55:12;;;;;;;1.05;0.90;;;;;;;;;;5058772;28;20024;-89
2023/10/24 08:57:42;;;;;;;2.80;1.08;;;;;;;;;;5058339;28;20012;-89
2023/10/24 09:00:11;;;;;;;2.38;1.20;;;;;;;;;;5058308;28;20476;-89
2023/10/24 09:02:36;;;;;;;2.58;0.90;;;;;;;;;;5058400;28;20032;-89
2023/10/24 09:05:02;;;;;;;0.70;0.70;;;;;;;;;;5058668;28;20029;-89
2023/10/24 09:07:28;;;;;;;4.22;0.80;;;;;;;;;;5075627;28;20040;-90
2023/10/24 09:09:53;;;;;;;1.73;0.80;;;;;;;;;;5056683;28;20024;-89
2023/10/24 09:12:18;;;;;;;2.83;0.80;;;;;;;;;;5057856;28;20264;-89
2023/10/24 09:14:44;;;;;;;1.85;0.70;;;;;;;;;;5058163;28;20358;-89
2023/10/24 09:17:11;;;;;;;3.50;0.70;;;;;;;;;;5058014;28;20017;-89
2023/10/24 09:19:39;;;;;;;1.70;0.60;;;;;;;;;;5076177;28;20526;-90
2023/10/24 09:22:05;;;;;;;4.13;0.95;;;;;;;;;;5057714;28;20048;-89
2023/10/24 09:24:30;;;;;;;1.17;0.90;;;;;;;;;;5058001;28;20571;-89
2023/10/24 09:26:56;;;;;;;0.63;0.63;;;;;;;;;;5057714;28;20040;-89
2023/10/24 09:29:24;;;;;;;1.52;0.50;;;;;;;;;;5057488;28;20016;-89
2023/10/24 09:31:49;;;;;;;2.75;0.80;;;;;;;;;;5057543;28;20016;-89
2023/10/24 09:34:16;;;;;;;1.88;0.80;;;;;;;;;;5057697;28;20016;-89
2023/10/24 09:36:41;;;;;;;4.30;0.90;;;;;;;;;;5057675;28;20020;-89
2023/10/24 09:39:08;;;;;;;4.03;0.90;;;;;;;;;;5057728;28;20017;-89
2023/10/24 09:41:34;;;;;;;2.35;0.63;;;;;;;;;;5057265;28;20084;-89
2023/10/24 09:44:00;;;;;;;2.17;0.75;;;;;;;;;;5057390;28;20036;-89
2023/10/24 09:46:27;;;;;;;2.90;0.98;;;;;;;;;;5057068;28;20032;-89
2023/10/24 09:48:54;;;;;;;1.25;0.98;;;;;;;;;;5074311;28;20354;-89
2023/10/24 09:51:19;;;;;;;1.10;1.00;;;;;;;;;;5057237;28;20424;-89
2023/10/24 09:53:45;;;;;;;0.93;0.90;;;;;;;;;;5057253;28;20063;-89
2023/10/24 09:56:11;;;;;;;3.28;0.80;;;;;;;;;;5057392;28;20031;-89
2023/10/24 09:58:41;;;;;;;2.03;0.95;;;;;;;;;;5075618;28;20032;-89
2023/10/24 10:01:06;;;;;;;2.30;0.90;;;;;;;;;;5057297;28;20487;-89
2023/10/24 10:03:34;;;;;;;2.25;0.88;;;;;;;;;;5057183;28;20063;-89
2023/10/24 10:06:00;;;;;;;0.88;0.80;;;;;;;;;;5057562;28;20016;-89
2023/10/24 10:08:27;;;;;;;1.95;0.85;;;;;;;;;;5057251;28;20027;-89
2023/10/24 10:10:52;;;;;;;1.30;0.88;;;;;;;;;;5057527;28;20016;-89
2023/10/24 10:13:21;;;;;;;3.75;0.90;;;;;;;;;;5057169;28;20024;-89
2023/10/24 10:15:55;;;;;;;1.05;0.90;;;;;;;;;;5056953;28;20070;-89
2023/10/24 10:18:45;;;;;;;1.95;0.88;;;;;;;;;;5057009;28;20021;-89
2023/10/24 10:21:29;;;;;;;1.17;0.77;;;;;;;;;;5057170;28;20051;-88
2023/10/24 10:24:17;;;;;;;1.48;0.90;;;;;;;;;;5060911;28;20052;-89
2023/10/24 10:26:42;;;;;;;1.98;0.93;;;;;;;;;;5060918;28;20031;-89
2023/10/24 10:29:08;;;;;;;2.13;1.10;;;;;;;;;;5079099;28;20016;-89
2023/10/24 10:31:42;;;;;;;1.58;1.00;;;;;;;;;;5079174;28;20376;-89
2023/10/24 10:34:07;;;;;;;1.35;0.90;;;;;;;;;;5060936;28;20040;-89
2023/10/24 10:36:32;;;;;;;2.55;1.30;;;;;;;;;;5061129;28;20017;-89
2023/10/24 10:39:00;;;;;;;2.80;1.30;;;;;;;;;;5078822;28;20024;-89
2023/10/24 10:41:26;;;;;;;2.33;0.90;;;;;;;;;;5060606;28;20027;-89
2023/10/24 10:43:53;;;;;;;1.10;0.80;;;;;;;;;;5078579;28;20091;-89
2023/10/24 10:46:20;;;;;;;1.55;0.90;;;;;;;;;;5060397;28;20027;-89
2023/10/24 10:48:47;;;;;;;1.02;0.70;;;;;;;;;;5059714;28;20020;-89
2023/10/24 10:51:15;;;;;;;2.33;1.10;;;;;;;;;;5059828;28;20013;-88
2023/10/24 10:53:57;;;;;;;1.52;0.90;;;;;;;;;;5060280;28;20074;-89
2023/10/24 10:56:30;;;;;;;2.03;1.02;;;;;;;;;;5077904;28;20020;-89
2023/10/24 10:59:04;;;;;;;1.77;1.05;;;;;;;;;;5060245;28;20024;-89
2023/10/24 11:01:35;;;;;;;2.20;1.23;;;;;;;;;;5060358;28;20020;-88
2023/10/24 11:04:00;;;;;;;2.35;1.08;;;;;;;;;;5060463;28;20074;-89
2023/10/24 11:06:26;;;;;;;1.75;0.90;;;;;;;;;;5060340;28;20024;-88
2023/10/24 11:09:07;;;;;;;3.30;1.10;;;;;;;;;;5078194;28;20491;-89
2023/10/24 11:11:32;;;;;;;3.95;1.10;;;;;;;;;;5060394;28;20017;-89
2023/10/24 11:14:17;;;;;;;1.48;1.00;;;;;;;;;;5060068;28;20489;-88
2023/10/24 11:16:42;;;;;;;2.45;1.00;;;;;;;;;;5060157;28;20024;-89
2023/10/24 11:19:10;;;;;;;1.70;0.85;;;;;;;;;;5060058;28;20376;-89
2023/10/24 11:21:35;;;;;;;2.30;1.10;;;;;;;;;;5059658;28;20017;-89
2023/10/24 11:24:00;;;;;;;3.13;1.02;;;;;;;;;;5060092;28;20365;-88
2023/10/24 11:26:26;;;;;;;1.07;0.90;;;;;;;;;;5059836;28;20032;-89
2023/10/24 11:28:51;;;;;;;1.13;0.95;;;;;;;;;;5059883;28;20020;-89
2023/10/24 11:31:21;;;;;;;3.72;1.05;;;;;;;;;;5059901;28;20043;-89
2023/10/24 11:33:47;;;;;;;1.48;0.90;;;;;;;;;;5077044;28;20027;-89
2023/10/24 11:36:12;;;;;;;1.42;0.93;;;;;;;;;;5059684;28;20107;-89
2023/10/24 11:38:37;;;;;;;2.00;0.97;;;;;;;;;;5059341;28;20051;-89
2023/10/24 11:41:02;;;;;;;1.90;0.80;;;;;;;;;;5059514;28;20245;-88
2023/10/24 11:43:29;;;;;;;1.30;0.90;;;;;;;;;;5077025;28;20013;-88
2023/10/24 11:45:55;;;;;;;1.23;0.90;;;;;;;;;;5076490;28;20024;-88
2023/10/24 11:48:20;;;;;;;1.13;0.80;;;;;;;;;;5059227;28;20020;-88
2023/10/24 11:50:46;;;;;;;1.60;1.00;;;;;;;;;;5077476;28;20077;-89
2023/10/24 11:53:21;;;;;;;1.45;0.75;;;;;;;;;;5059376;28;20016;-88
2023/10/24 11:55:49;;;;;;;2.17;0.80;;;;;;;;;;5059371;28;20111;-89
2023/10/24 11:58:15;;;;;;;1.33;0.77;;;;;;;;;;5059369;28;20483;-88
2023/10/24 12:00:42;;;;;;;2.10;0.85;;;;;;;;;;5059078;28;20024;-89
2023/10/24 12:03:07;;;;;;;2.28;1.00;;;;;;;;;;5077079;28;20557;-89
2023/10/24 12:05:32;;;;;;;2.08;0.90;;;;;;;;;;5059008;28;20080;-88
2023/10/24 12:07:59;;;;;;;1.48;0.90;;;;;;;;;;5058964;28;20045;-89
2023/10/24 12:10:25;;;;;;;1.42;0.80;;;;;;;;;;5059378;28;20044;-88
2023/10/24 12:12:53;;;;;;;1.42;0.70;;;;;;;;;;5076871;28;20039;-88
2023/10/24 12:15:18;;;;;;;1.00;0.90;;;;;;;;;;5058937;28;20460;-88
2023/10/24 12:17:47;;;;;;;1.37;0.97;;;;;;;;;;5058630;28;20021;-88
2023/10/24 12:20:12;;;;;;;1.20;0.80;;;;;;;;;;5076633;28;20253;-88
2023/10/24 12:22:37;;;;;;;4.13;1.07;;;;;;;;;;5059120;28;20044;-90
2023/10/24 12:25:03;;;;;;;3.67;1.00;;;;;;;;;;5058856;28;20285;-90
2023/10/24 12:27:28;;;;;;;1.58;0.98;;;;;;;;;;5058855;28;20479;-92
2023/10/24 12:29:53;;;;;;;1.65;0.80;;;;;;;;;;5059366;28;20028;-93
2023/10/24 12:32:18;;;;;;;2.83;1.03;;;;;;;;;;5059250;28;20370;-88
2023/10/24 12:34:44;;;;;;;1.20;0.80;;;;;;;;;;5058957;28;20753;-90
2023/10/24 12:37:10;;;;;;;1.38;0.68;;;;;;;;;;5059045;28;20055;-90
2023/10/24 12:39:35;;;;;;;2.90;1.02;;;;;;;;;;5077458;28;20024;-90
2023/10/24 12:42:00;;;;;;;3.43;0.77;;;;;;;;;;5059121;28;20388;-91
2023/10/24 12:44:25;;;;;;;1.83;0.80;;;;;;;;;;5058393;28;20806;-90
2023/10/24 12:46:50;;;;;;;1.50;0.90;;;;;;;;;;5076599;28;20066;-91
2023/10/24 12:49:16;;;;;;;1.93;0.80;;;;;;;;;;5059188;28;20794;-90
2023/10/24 12:51:42;;;;;;;1.60;0.80;;;;;;;;;;5058904;28;20755;-90
2023/10/24 12:54:07;;;;;;;8.00;0.85;;;;;;;;;;5058081;28;20150;-89
2023/10/24 12:56:33;;;;;;;3.35;0.70;;;;;;;;;;5058402;28;20074;-90
2023/10/24 12:58:58;;;;;;;2.58;0.52;;;;;;;;;;5076485;28;20021;-90
2023/10/24 13:01:24;;;;;;;1.85;0.63;;;;;;;;;;5057835;28;20028;-89
2023/10/24 13:03:50;;;;;;;1.40;0.60;;;;;;;;;;5075677;28;20024;-90
2023/10/24 13:06:15;;;;;;;0.57;0.47;;;;;;;;;;5058148;28;20380;-90
2023/10/24 13:08:40;;;;;;;0.50;0.50;;;;;;;;;;5076630;28;20070;-90
2023/10/24 13:11:06;;;;;;;0.33;0.33;;;;;;;;;;5058641;28;20012;-91
2023/10/24 13:13:31;;;;;;;0.75;0.45;;;;;;;;;;5058643;28;20074;-90
2023/10/24 13:15:56;;;;;;;3.27;0.67;;;;;;;;;;5058629;28;20085;-90
2023/10/24 13:18:21;;;;;;;4.87;0.90;;;;;;;;;;5058017;28;20246;-89
2023/10/24 13:20:47;;;;;;;0.82;0.60;;;;;;;;;;5058219;28;20260;-90
2023/10/24 13:23:12;;;;;;;3.27;1.07;;;;;;;;;;5058176;28;20127;-90
2023/10/24 13:25:38;;;;;;;1.53;0.60;;;;;;;;;;5058340;28;20570;-90
2023/10/24 13:28:04;;;;;;;2.55;0.63;;;;;;;;;;5075974;28;20043;-90
2023/10/24 13:30:31;;;;;;;0.80;0.63;;;;;;;;;;5058115;28;20033;-90
2023/10/24 13:32:56;;;;;;;0.57;0.40;;;;;;;;;;5075912;28;20074;-90
2023/10/24 13:35:21;;;;;;;1.30;0.70;;;;;;;;;;5075848;28;20361;-90
2023/10/24 13:37:46;;;;;;;1.77;0.60;;;;;;;;;;5057032;28;20287;-90
2023/10/24 13:40:12;;;;;;;1.67;0.50;;;;;;;;;;5057364;28;20119;-89
2023/10/24 13:42:37;;;;;;;0.40;0.40;;;;;;;;;;5057865;28;20299;-89
2023/10/24 13:45:02;;;;;;;1.40;0.52;;;;;;;;;;5057604;28;20036;-90
2023/10/24 13:47:28;;;;;;;0.60;0.50;;;;;;;;;;5075960;28;20016;-90
2023/10/24 13:49:53;;;;;;;2.80;0.73;;;;;;;;;;5057873;28;20024;-90
2023/10/24 13:52:18;;;;;;;3.05;0.70;;;;;;;;;;5057703;28;20019;-90
2023/10/24 13:54:46;;;;;;;0.90;0.60;;;;;;;;;;5057754;28;20051;-90
2023/10/24 13:57:11;;;;;;;0.70;0.60;;;;;;;;;;5075375;28;20283;-90
2023/10/24 13:59:36;;;;;;;0.57;0.53;;;;;;;;;;5057798;28;20395;-89
2023/10/24 14:02:02;;;;;;;1.55;0.70;;;;;;;;;;5057525;28;20025;-90
2023/10/24 14:04:27;;;;;;;2.40;0.77;;;;;;;;;;5057418;28;20024;-90
2023/10/24 14:06:54;;;;;;;0.57;0.50;;;;;;;;;;5057926;28;20268;-90
2023/10/24 14:09:20;;;;;;;2.40;0.68;;;;;;;;;;5057464;28;20065;-90
2023/10/24 14:11:45;;;;;;;0.63;0.50;;;;;;;;;;5057503;28;20032;-90
2023/10/24 14:14:11;;;;;;;3.40;0.80;;;;;;;;;;5056696;28;20276;-89
2023/10/24 14:16:37;;;;;;;1.75;0.82;;;;;;;;;;5074854;28;20782;-90
2023/10/24 14:19:02;;;;;;;1.83;0.40;;;;;;;;;;5057445;28;20024;-90
2023/10/24 14:21:27;;;;;;;2.20;0.80;;;;;;;;;;5057409;28;20070;-90
2023/10/24 14:23:52;;;;;;;3.43;0.90;;;;;;;;;;5075507;28;20499;-90
2023/10/24 14:26:18;;;;;;;2.50;0.70;;;;;;;;;;5057276;28;20277;-89
2023/10/24 14:28:43;;;;;;;0.77;0.52;;;;;;;;;;5057201;28;20249;-90
2023/10/24 14:31:08;;;;;;;1.27;0.70;;;;;;;;;;5057509;28;20107;-90
2023/10/24 14:33:34;;;;;;;2.95;0.60;;;;;;;;;;5057135;28;20017;-90